Time,TemperatureF,DewpointF,PressureIn,WindDirection,WindDirectionDegrees,WindSpeedMPH,WindSpeedGustMPH,Humidity,HourlyPrecipIn,Conditions,Clouds,dailyrainin,SoftwareType,DateUTC
2013-02-26 00:06:00,41.5,37.0,30.07,North,0,0.0,-999.0,84,-99.99,,,0.00,Acu-Link.com,2013-02-26 08:06:00,
2013-02-26 00:22:00,41.7,37.5,30.08,WSW,247,0.0,-999.0,85,-99.99,,,0.00,Acu-Link.com,2013-02-26 08:22:00,
2013-02-26 00:37:00,41.4,37.8,30.08,SW,225,3.7,-999.0,87,-99.99,,,0.00,Acu-Link.com,2013-02-26 08:37:00,
2013-02-26 00:52:00,42.1,38.5,30.08,SW,225,2.2,-999.0,87,-99.99,,,0.00,Acu-Link.com,2013-02-26 08:52:00,
2013-02-26 04:04:00,41.9,38.3,30.05,WSW,247,0.0,-999.0,87,-99.99,,,0.00,Acu-Link.com,2013-02-26 12:04:00,
2013-02-26 04:19:00,41.7,37.8,30.06,WSW,247,0.0,-999.0,86,-99.99,,,0.00,Acu-Link.com,2013-02-26 12:19:00,
2013-02-26 04:35:00,41.2,37.3,30.06,WSW,247,0.0,-999.0,86,-99.99,,,0.00,Acu-Link.com,2013-02-26 12:35:00,
2013-02-26 04:50:00,40.6,37.6,30.06,WSW,247,0.0,-999.0,89,-99.99,,,0.00,Acu-Link.com,2013-02-26 12:50:00,
2013-02-26 05:05:00,41.4,38.4,30.06,WSW,247,2.2,-999.0,89,-99.99,,,0.00,Acu-Link.com,2013-02-26 13:05:00,
2013-02-26 05:20:00,41.2,38.2,30.07,West,270,0.0,-999.0,89,-99.99,,,0.00,Acu-Link.com,2013-02-26 13:20:00,
2013-02-26 05:35:00,40.6,37.9,30.08,West,270,0.0,-999.0,90,-99.99,,,0.00,Acu-Link.com,2013-02-26 13:35:00,
2013-02-26 05:51:00,40.8,38.4,30.08,WSW,247,0.0,-999.0,91,-99.99,,,0.00,Acu-Link.com,2013-02-26 13:51:00,
2013-02-26 06:06:00,40.8,38.7,30.09,WSW,247,2.2,-999.0,92,-99.99,,,0.00,Acu-Link.com,2013-02-26 14:06:00,
2013-02-26 06:21:00,41.2,38.5,30.07,WSW,247,2.7,-999.0,90,-99.99,,,0.00,Acu-Link.com,2013-02-26 14:21:00,
2013-02-26 06:36:00,41.5,36.7,30.06,WSW,247,0.0,-999.0,83,-99.99,,,0.00,Acu-Link.com,2013-02-26 14:36:00,
2013-02-26 06:52:00,41.9,35.2,30.05,SW,225,0.0,-999.0,77,-99.99,,,0.00,Acu-Link.com,2013-02-26 14:52:00,
2013-02-26 07:07:00,43.5,34.4,30.05,SW,225,1.7,-999.0,70,-99.99,,,0.00,Acu-Link.com,2013-02-26 15:07:00,
2013-02-26 07:22:00,44.8,34.1,30.05,ENE,67,1.7,-999.0,66,-99.99,,,0.00,Acu-Link.com,2013-02-26 15:22:00,
2013-02-26 07:37:00,49.5,34.5,30.07,South,180,0.0,-999.0,56,-99.99,,,0.00,Acu-Link.com,2013-02-26 15:37:00,
2013-02-26 07:53:00,53.4,34.7,30.07,ESE,112,1.7,-999.0,49,-99.99,,,0.00,Acu-Link.com,2013-02-26 15:53:00,
2013-02-26 08:08:00,54.0,34.8,30.08,SE,135,2.2,-999.0,48,-99.99,,,0.00,Acu-Link.com,2013-02-26 16:08:00,
2013-02-26 08:23:00,55.6,33.5,30.08,East,90,1.7,-999.0,43,-99.99,,,0.00,Acu-Link.com,2013-02-26 16:23:00,
2013-02-26 08:38:00,55.0,32.3,30.07,North,0,1.7,-999.0,42,-99.99,,,0.00,Acu-Link.com,2013-02-26 16:38:00,
2013-02-26 08:53:00,55.9,33.7,30.08,East,90,0.0,-999.0,43,-99.99,,,0.00,Acu-Link.com,2013-02-26 16:53:00,
2013-02-26 09:09:00,56.3,33.5,30.08,North,0,1.1,-999.0,42,-99.99,,,0.00,Acu-Link.com,2013-02-26 17:09:00,
2013-02-26 09:24:00,58.1,32.6,30.08,South,180,2.7,-999.0,38,-99.99,,,0.00,Acu-Link.com,2013-02-26 17:24:00,
2013-02-26 09:39:00,57.7,31.6,30.08,NNE,22,2.7,-999.0,37,-99.99,,,0.00,Acu-Link.com,2013-02-26 17:39:00,
2013-02-26 09:54:00,58.5,30.2,30.09,ENE,67,3.2,-999.0,34,-99.99,,,0.00,Acu-Link.com,2013-02-26 17:54:00,
2013-02-26 10:10:00,59.5,33.2,30.08,West,270,1.1,-999.0,37,-99.99,,,0.00,Acu-Link.com,2013-02-26 18:10:00,
2013-02-26 10:25:00,59.2,32.9,30.09,ENE,67,2.7,-999.0,37,-99.99,,,0.00,Acu-Link.com,2013-02-26 18:25:00,
2013-02-26 10:40:00,61.9,35.3,30.08,ENE,67,2.2,-999.0,37,-99.99,,,0.00,Acu-Link.com,2013-02-26 18:40:00,
2013-02-26 10:55:00,60.8,33.0,30.08,ESE,112,1.7,-999.0,35,-99.99,,,0.00,Acu-Link.com,2013-02-26 18:55:00,
2013-02-26 11:10:00,60.1,30.9,30.08,East,90,1.1,-999.0,33,-99.99,,,0.00,Acu-Link.com,2013-02-26 19:10:00,
2013-02-26 11:26:00,63.3,30.5,30.09,NNW,337,3.2,-999.0,29,-99.99,,,0.00,Acu-Link.com,2013-02-26 19:26:00,
2013-02-26 11:41:00,64.2,32.9,30.08,South,180,2.2,-999.0,31,-99.99,,,0.00,Acu-Link.com,2013-02-26 19:41:00,
2013-02-26 11:56:00,63.7,30.9,30.08,NW,315,2.2,-999.0,29,-99.99,,,0.00,Acu-Link.com,2013-02-26 19:56:00,
2013-02-26 12:11:00,64.4,30.6,30.07,North,0,6.3,-999.0,28,-99.99,,,0.00,Acu-Link.com,2013-02-26 20:11:00,
2013-02-26 12:26:00,64.0,30.2,30.07,ENE,67,4.7,-999.0,28,-99.99,,,0.00,Acu-Link.com,2013-02-26 20:26:00,
2013-02-26 12:42:00,65.7,29.9,30.06,NE,45,4.7,-999.0,26,-99.99,,,0.00,Acu-Link.com,2013-02-26 20:42:00,
2013-02-26 12:57:00,65.1,30.3,30.06,East,90,3.2,-999.0,27,-99.99,,,0.00,Acu-Link.com,2013-02-26 20:57:00,
2013-02-26 13:12:00,64.4,26.8,30.05,ESE,112,1.7,-999.0,24,-99.99,,,0.00,Acu-Link.com,2013-02-26 21:12:00,
2013-02-26 13:27:00,66.6,28.7,30.05,NE,45,2.7,-999.0,24,-99.99,,,0.00,Acu-Link.com,2013-02-26 21:27:00,
2013-02-26 13:42:00,66.6,27.6,30.03,NE,45,3.7,-999.0,23,-99.99,,,0.00,Acu-Link.com,2013-02-26 21:42:00,
2013-02-26 13:58:00,67.3,27.2,30.03,NE,45,1.1,-999.0,22,-99.99,,,0.00,Acu-Link.com,2013-02-26 21:58:00,
2013-02-26 14:13:00,67.3,28.2,30.02,NE,45,2.7,-999.0,23,-99.99,,,0.00,Acu-Link.com,2013-02-26 22:13:00,
2013-02-26 14:28:00,66.9,28.9,30.02,East,90,3.7,-999.0,24,-99.99,,,0.00,Acu-Link.com,2013-02-26 22:28:00,
2013-02-26 14:43:00,67.8,26.4,30.02,North,0,4.7,-999.0,21,-99.99,,,0.00,Acu-Link.com,2013-02-26 22:43:00,
2013-02-26 14:58:00,67.8,26.4,30.01,NW,315,4.7,-999.0,21,-99.99,,,0.00,Acu-Link.com,2013-02-26 22:58:00,
2013-02-26 15:14:00,67.3,27.2,30.02,ENE,67,2.7,-999.0,22,-99.99,,,0.00,Acu-Link.com,2013-02-26 23:14:00,
2013-02-26 15:29:00,67.6,28.5,30.01,ENE,67,3.7,-999.0,23,-99.99,,,0.00,Acu-Link.com,2013-02-26 23:29:00,
2013-02-26 15:44:00,67.3,29.3,30.00,North,0,2.2,-999.0,24,-99.99,,,0.00,Acu-Link.com,2013-02-26 23:44:00,
2013-02-26 15:59:00,66.9,28.9,30.01,East,90,3.2,-999.0,24,-99.99,,,0.00,Acu-Link.com,2013-02-26 23:59:00,
2013-02-26 16:15:00,66.2,29.3,30.01,North,0,2.2,-999.0,25,-99.99,,,0.00,Acu-Link.com,2013-02-27 00:15:00,
2013-02-26 16:30:00,65.1,28.4,30.00,SE,135,2.7,-999.0,25,-99.99,,,0.00,Acu-Link.com,2013-02-27 00:30:00,
2013-02-26 16:45:00,64.8,35.0,30.01,SSW,202,1.1,-999.0,33,-99.99,,,0.00,Acu-Link.com,2013-02-27 00:45:00,
2013-02-26 17:00:00,62.6,33.1,30.00,East,90,0.0,-999.0,33,-99.99,,,0.00,Acu-Link.com,2013-02-27 01:00:00,
2013-02-26 17:15:00,62.4,33.7,30.02,SW,225,2.7,-999.0,34,-99.99,,,0.00,Acu-Link.com,2013-02-27 01:15:00,
2013-02-26 17:31:00,59.7,32.7,30.01,WSW,247,3.2,-999.0,36,-99.99,,,0.00,Acu-Link.com,2013-02-27 01:31:00,
2013-02-26 17:46:00,58.1,35.1,30.01,WSW,247,3.2,-999.0,42,-99.99,,,0.00,Acu-Link.com,2013-02-27 01:46:00,
2013-02-26 18:01:00,56.3,37.4,30.01,WSW,247,3.2,-999.0,49,-99.99,,,0.00,Acu-Link.com,2013-02-27 02:01:00,
2013-02-26 18:16:00,54.7,36.9,30.02,West,270,2.7,-999.0,51,-99.99,,,0.00,Acu-Link.com,2013-02-27 02:16:00,
2013-02-26 18:31:00,53.8,35.1,30.02,West,270,4.2,-999.0,49,-99.99,,,0.00,Acu-Link.com,2013-02-27 02:31:00,
2013-02-26 18:47:00,52.9,33.2,30.02,SSW,202,3.7,-999.0,47,-99.99,,,0.00,Acu-Link.com,2013-02-27 02:47:00,
2013-02-26 19:02:00,52.3,32.1,30.03,SSW,202,0.0,-999.0,46,-99.99,,,0.00,Acu-Link.com,2013-02-27 03:02:00,
2013-02-26 19:17:00,51.3,31.2,30.04,SW,225,0.0,-999.0,46,-99.99,,,0.00,Acu-Link.com,2013-02-27 03:17:00,
2013-02-26 19:32:00,51.1,30.5,30.05,WSW,247,2.2,-999.0,45,-99.99,,,0.00,Acu-Link.com,2013-02-27 03:32:00,
2013-02-26 19:47:00,50.4,30.4,30.03,SSW,202,0.0,-999.0,46,-99.99,,,0.00,Acu-Link.com,2013-02-27 03:47:00,
2013-02-26 20:03:00,50.2,29.7,30.04,SW,225,2.2,-999.0,45,-99.99,,,0.00,Acu-Link.com,2013-02-27 04:03:00,
2013-02-26 20:18:00,50.5,29.4,30.05,SW,225,2.2,-999.0,44,-99.99,,,0.00,Acu-Link.com,2013-02-27 04:18:00,
2013-02-26 20:33:00,49.8,29.3,30.05,SW,225,1.7,-999.0,45,-99.99,,,0.00,Acu-Link.com,2013-02-27 04:33:00,
2013-02-26 20:48:00,49.3,28.9,30.05,SW,225,1.1,-999.0,45,-99.99,,,0.00,Acu-Link.com,2013-02-27 04:48:00,
2013-02-26 21:03:00,48.6,28.8,30.06,SW,225,0.0,-999.0,46,-99.99,,,0.00,Acu-Link.com,2013-02-27 05:03:00,
2013-02-26 21:19:00,48.6,29.3,30.06,SW,225,0.0,-999.0,47,-99.99,,,0.00,Acu-Link.com,2013-02-27 05:19:00,
2013-02-26 21:34:00,47.7,30.0,30.05,SW,225,0.0,-999.0,50,-99.99,,,0.00,Acu-Link.com,2013-02-27 05:34:00,
2013-02-26 21:49:00,46.8,30.1,30.07,SW,225,0.0,-999.0,52,-99.99,,,0.00,Acu-Link.com,2013-02-27 05:49:00,
2013-02-26 22:04:00,46.0,29.4,30.07,WSW,247,0.0,-999.0,52,-99.99,,,0.00,Acu-Link.com,2013-02-27 06:04:00,
2013-02-26 22:20:00,46.4,29.7,30.08,WSW,247,0.0,-999.0,52,-99.99,,,0.00,Acu-Link.com,2013-02-27 06:20:00,
2013-02-26 22:35:00,47.7,30.0,30.07,WSW,247,0.0,-999.0,50,-99.99,,,0.00,Acu-Link.com,2013-02-27 06:35:00,
2013-02-26 22:50:00,47.5,29.8,30.08,SW,225,0.0,-999.0,50,-99.99,,,0.00,Acu-Link.com,2013-02-27 06:50:00,
2013-02-26 23:05:00,47.5,29.8,30.07,SW,225,0.0,-999.0,50,-99.99,,,0.00,Acu-Link.com,2013-02-27 07:05:00,
2013-02-26 23:21:00,47.1,28.9,30.07,WSW,247,0.0,-999.0,49,-99.99,,,0.00,Acu-Link.com,2013-02-27 07:21:00,
2013-02-26 23:36:00,46.6,29.5,30.08,NNE,22,0.0,-999.0,51,-99.99,,,0.00,Acu-Link.com,2013-02-27 07:36:00,
2013-02-26 23:51:00,45.5,29.4,30.09,NNE,22,0.0,-999.0,53,-99.99,,,0.00,Acu-Link.com,2013-02-27 07:51:00,